This is the latest recevied weather packets stored in our database for station/object S51UL-6. If no packets are shown the sender has not sent any weather packets the latest 10 day(s).
| Time | Temp. | Humidity | Pressure | Rain* | Wind** | Luminosity | Snow |
|---|---|---|---|---|---|---|---|
| 1777709960 | 22.78° C | 44% | 1025.6 hPa | 0 mm | - | - | - |
| 1777709362 | 21.67° C | 44% | 1025.6 hPa | 0 mm | - | - | - |
| 1777709062 | 21.67° C | 45% | 1025.8 hPa | 0 mm | - | - | - |
| 1777708762 | 21.11° C | 46% | 1025.8 hPa | 0 mm | - | - | - |
| 1777708468 | 20.56° C | 49% | 1025.7 hPa | 0 mm | - | - | - |
| 1777708163 | 20.56° C | 51% | 1025.8 hPa | 0 mm | - | - | - |
| 1777707862 | 19.44° C | 53% | 1025.9 hPa | 0 mm | - | - | - |
| 1777707262 | 17.22° C | 61% | 1026 hPa | 0 mm | - | - | - |
| 1777706963 | 16.11° C | 63% | 1025.8 hPa | 0 mm | - | - | - |
| 1777706663 | 15.56° C | 65% | 1025.8 hPa | 0 mm | - | - | - |
| 1777706361 | 15.56° C | 66% | 1025.9 hPa | 0 mm | - | - | - |
| 1777705763 | 14.44° C | 70% | 1026.1 hPa | 0 mm | - | - | - |
| 1777705464 | 13.89° C | 70% | 1026 hPa | 0 mm | - | - | - |
| 1777705163 | 13.33° C | 71% | 1026 hPa | 0 mm | - | - | - |
| 1777704864 | 13.33° C | 72% | 1026.1 hPa | 0 mm | - | - | - |
| 1777703363 | 11.11° C | 77% | 1026.2 hPa | 0 mm | - | - | - |
| 1777703063 | 10.56° C | 79% | 1026.2 hPa | 0 mm | - | - | - |
| 1777702464 | 9.44° C | 80% | 1026.2 hPa | 0 mm | - | - | - |
| 1777702163 | 8.89° C | 81% | 1026.3 hPa | 0 mm | - | - | - |
| 1777701864 | 8.89° C | 81% | 1026.3 hPa | 0 mm | - | - | - |
| 1777700964 | 7.78° C | 82% | 1026.2 hPa | 0 mm | - | - | - |
| 1777700664 | 7.22° C | 82% | 1026.5 hPa | 0 mm | - | - | - |
| 1777700364 | 7.22° C | 82% | 1026.4 hPa | 0 mm | - | - | - |
| 1777700062 | 6.67° C | 83% | 1026.3 hPa | 0 mm | - | - | - |
| 1777699764 | 6.67° C | 83% | 1026.6 hPa | 0 mm | - | - | - |
* Rain latest hour (hover to see other rain measurements)
** Current wind speed in m/s (hover to see current wind gust speed)